createdAt,value
2022-09-12T00:00:48.492Z,72.16
2022-09-12T00:03:16.234Z,72.50
2022-09-12T00:05:44.336Z,72.61
2022-09-12T00:08:12.945Z,72.33
2022-09-12T00:10:43.922Z,72.44
2022-09-12T00:13:12.328Z,72.38
2022-09-12T00:15:40.150Z,72.10
2022-09-12T00:18:09.318Z,72.06
2022-09-12T00:20:37.010Z,72.12
2022-09-12T00:23:04.611Z,72.17
2022-09-12T00:25:32.072Z,71.80
2022-09-12T00:28:00.897Z,71.85
2022-09-12T00:30:28.537Z,71.82
2022-09-12T00:32:56.043Z,72.09
2022-09-12T00:35:23.559Z,71.93
2022-09-12T00:37:51.028Z,71.62
2022-09-12T00:40:18.528Z,71.52
2022-09-12T00:42:46.019Z,71.57
2022-09-12T00:45:24.058Z,71.93
2022-09-12T00:47:51.654Z,71.67
2022-09-12T00:50:19.550Z,71.72
2022-09-12T00:52:51.787Z,72.80
2022-09-12T00:55:23.243Z,72.19
2022-09-12T00:57:54.951Z,72.14
2022-09-12T01:00:26.360Z,72.55
2022-09-12T01:02:58.112Z,71.56
2022-09-12T01:05:29.130Z,71.51
2022-09-12T01:07:57.946Z,71.62
2022-09-12T01:10:25.892Z,71.84
2022-09-12T01:12:53.581Z,71.58
2022-09-12T01:15:21.136Z,71.63
2022-09-12T01:18:03.079Z,71.64
2022-09-12T01:20:47.449Z,71.47
2022-09-12T01:23:44.707Z,71.48
2022-09-12T01:26:39.504Z,71.74
2022-09-12T01:29:26.325Z,71.51
2022-09-12T01:32:01.401Z,71.17
2022-09-12T01:34:40.081Z,71.19
2022-09-12T01:37:15.291Z,71.26
2022-09-12T01:39:53.381Z,71.37
2022-09-12T01:42:27.893Z,71.32
2022-09-12T01:45:03.151Z,71.49
2022-09-12T01:47:40.407Z,71.49
2022-09-12T01:50:11.681Z,71.53
2022-09-12T01:52:45.736Z,71.86
2022-09-12T01:55:19.652Z,71.28
2022-09-12T01:57:53.814Z,71.47
2022-09-12T02:00:21.593Z,71.37
2022-09-12T02:02:54.916Z,71.60
2022-09-12T02:05:29.414Z,71.62
2022-09-12T02:08:03.936Z,71.66
2022-09-12T02:10:34.437Z,71.71
2022-09-12T02:13:09.338Z,71.65
2022-09-12T02:15:40.959Z,71.59
2022-09-12T02:18:15.159Z,72.00
2022-09-12T02:20:48.397Z,71.72
2022-09-12T02:23:20.644Z,71.81
2022-09-12T02:25:52.053Z,71.77
2022-09-12T02:28:24.922Z,72.10
2022-09-12T02:31:00.525Z,71.96
2022-09-12T02:33:38.676Z,72.39
2022-09-12T02:36:14.370Z,72.25
2022-09-12T02:38:45.761Z,72.24
2022-09-12T02:41:16.808Z,73.15
2022-09-12T02:43:44.682Z,74.68
2022-09-12T02:46:17.891Z,72.73
2022-09-12T02:48:46.884Z,72.23
2022-09-12T02:51:14.800Z,72.21
2022-09-12T02:53:43.219Z,72.01
2022-09-12T02:56:18.281Z,72.54
2022-09-12T02:58:46.407Z,71.86
2022-09-12T03:01:28.903Z,71.80
2022-09-12T03:04:23.764Z,72.02
2022-09-12T03:07:02.731Z,72.36
2022-09-12T03:09:38.801Z,71.82
2022-09-12T03:12:17.147Z,71.82
2022-09-12T03:15:07.395Z,72.02
2022-09-12T03:17:48.426Z,72.15
2022-09-12T03:20:29.704Z,72.36
2022-09-12T03:23:01.948Z,73.24
2022-09-12T03:25:33.666Z,75.36
2022-09-12T03:28:07.557Z,72.69
2022-09-12T03:30:39.189Z,72.60
2022-09-12T03:33:07.019Z,72.33
2022-09-12T03:35:35.933Z,73.61
2022-09-12T03:38:03.468Z,72.52
2022-09-12T03:40:30.960Z,72.12
2022-09-12T03:42:58.468Z,71.88
2022-09-12T03:45:26.007Z,72.04
2022-09-12T03:47:53.579Z,72.23
2022-09-12T03:50:21.268Z,71.90
2022-09-12T03:52:50.137Z,72.80
2022-09-12T03:55:18.144Z,73.96
2022-09-12T03:57:45.814Z,74.05
2022-09-12T04:00:19.049Z,74.98
2022-09-12T04:02:47.371Z,72.82
2022-09-12T04:05:14.955Z,72.61
2022-09-12T04:07:42.445Z,72.53
2022-09-12T04:10:11.509Z,72.53
2022-09-12T04:12:39.523Z,73.52
2022-09-12T04:15:08.328Z,75.25
2022-09-12T04:17:36.153Z,73.24
2022-09-12T04:20:03.948Z,73.11
2022-09-12T04:22:32.554Z,74.03
2022-09-12T04:25:00.188Z,72.95
2022-09-12T04:27:29.316Z,74.06
2022-09-12T04:29:57.392Z,73.71
2022-09-12T04:32:24.922Z,72.63
2022-09-12T04:34:53.388Z,72.36
2022-09-12T04:37:21.214Z,73.78
2022-09-12T04:39:49.708Z,74.78
2022-09-12T04:42:17.436Z,73.16
2022-09-12T04:44:46.306Z,74.82
2022-09-12T04:47:13.780Z,76.14
2022-09-12T04:49:41.269Z,75.55
2022-09-12T04:52:09.087Z,74.76
2022-09-12T04:54:36.583Z,73.83
2022-09-12T04:57:04.427Z,73.17
2022-09-12T04:59:31.917Z,72.14
2022-09-12T05:02:00.905Z,72.26
2022-09-12T05:04:28.474Z,73.48
2022-09-12T05:06:55.997Z,74.87
2022-09-12T05:09:23.544Z,73.88
2022-09-12T05:12:06.361Z,73.17
2022-09-12T05:14:34.466Z,75.06
2022-09-12T05:17:05.948Z,75.79
2022-09-12T05:19:33.877Z,72.91
2022-09-12T05:22:01.548Z,72.16
2022-09-12T05:24:29.041Z,72.30
2022-09-12T05:26:56.589Z,71.87
2022-09-12T05:29:25.140Z,71.88
2022-09-12T05:31:53.169Z,71.81
2022-09-12T05:34:22.223Z,71.94
2022-09-12T05:36:49.808Z,71.89
2022-09-12T05:39:18.546Z,72.15
2022-09-12T05:41:47.344Z,72.24
2022-09-12T05:44:15.770Z,72.43
2022-09-12T05:46:44.995Z,72.50
2022-09-12T05:49:14.511Z,72.76
2022-09-12T05:51:45.895Z,72.81
2022-09-12T05:54:15.177Z,73.23
2022-09-12T05:56:44.219Z,75.26
2022-09-12T05:59:14.188Z,74.04
2022-09-12T06:01:41.988Z,73.93
2022-09-12T06:04:10.593Z,73.59
2022-09-12T06:06:41.730Z,73.00
2022-09-12T06:09:10.977Z,72.92
2022-09-12T06:11:41.255Z,72.62
2022-09-12T06:14:10.792Z,72.81
2022-09-12T06:16:38.960Z,72.79
2022-09-12T06:19:08.447Z,72.85
2022-09-12T06:21:37.830Z,73.13
2022-09-12T06:24:05.603Z,72.99
2022-09-12T06:26:35.031Z,73.26
2022-09-12T06:29:03.214Z,73.09
2022-09-12T06:31:33.196Z,73.31
2022-09-12T06:34:02.516Z,73.49
2022-09-12T06:36:32.026Z,73.57
2022-09-12T06:39:03.180Z,73.35
2022-09-12T06:41:32.134Z,73.16
2022-09-12T06:44:01.951Z,73.00
2022-09-12T06:46:31.071Z,72.72
2022-09-12T06:49:00.605Z,73.21
2022-09-12T06:51:29.102Z,73.41
2022-09-12T06:53:57.636Z,73.72
2022-09-12T06:56:27.453Z,73.63
2022-09-12T06:58:57.332Z,73.12
2022-09-12T07:01:28.551Z,72.22
2022-09-12T07:03:57.697Z,71.80
2022-09-12T07:06:31.583Z,72.75
2022-09-12T07:08:59.751Z,73.25
2022-09-12T07:11:29.294Z,70.76
2022-09-12T07:13:57.527Z,69.78
2022-09-12T07:16:26.620Z,70.85
2022-09-12T07:18:55.637Z,70.29
2022-09-12T07:21:23.491Z,69.85
2022-09-12T07:23:52.052Z,69.90
2022-09-12T07:26:20.014Z,68.72
2022-09-12T07:28:52.022Z,69.27
2022-09-12T07:31:20.225Z,66.26
2022-09-12T07:33:54.444Z,64.44
2022-09-12T07:36:25.296Z,64.56
2022-09-12T07:38:57.602Z,66.53
2022-09-12T07:41:27.461Z,65.94
2022-09-12T07:43:56.152Z,66.05
2022-09-12T07:46:24.959Z,64.68
2022-09-12T07:48:55.376Z,65.35
2022-09-12T07:51:23.578Z,65.17
2022-09-12T07:53:51.797Z,63.84
2022-09-12T07:56:21.118Z,63.46
2022-09-12T07:58:49.222Z,62.27
2022-09-12T08:01:18.398Z,61.76
2022-09-12T08:03:47.621Z,60.04
2022-09-12T08:06:20.006Z,56.32
2022-09-12T08:08:48.766Z,55.57
2022-09-12T08:11:18.612Z,51.34
2022-09-12T08:13:49.643Z,49.50
2022-09-12T08:16:22.605Z,47.04
2022-09-12T08:18:51.129Z,46.99
2022-09-12T08:21:22.335Z,43.37
2022-09-12T08:23:54.057Z,42.57
2022-09-12T08:26:22.082Z,42.19
2022-09-12T08:28:50.062Z,42.07
2022-09-12T08:31:19.168Z,40.83
2022-09-12T08:33:46.865Z,40.90
2022-09-12T08:36:16.979Z,40.16
2022-09-12T08:38:47.479Z,38.49
2022-09-12T08:41:24.968Z,38.21
2022-09-12T08:44:13.602Z,37.00
2022-09-12T08:46:51.755Z,35.41
2022-09-12T08:49:26.302Z,35.38
2022-09-12T08:51:55.528Z,35.21
2022-09-12T08:54:28.200Z,34.21
2022-09-12T08:57:02.651Z,33.63
2022-09-12T08:59:36.665Z,33.54
2022-09-12T09:02:15.171Z,33.01
2022-09-12T09:04:51.782Z,33.09
2022-09-12T09:07:39.432Z,31.25
2022-09-12T09:10:23.545Z,30.38
2022-09-12T09:12:58.329Z,29.70
2022-09-12T09:15:45.483Z,30.16
2022-09-12T09:18:19.535Z,29.58
2022-09-12T09:20:52.997Z,27.66
2022-09-12T09:23:24.747Z,27.12
2022-09-12T09:25:56.738Z,28.77
2022-09-12T09:28:29.894Z,25.88
2022-09-12T09:30:58.409Z,25.41
2022-09-12T09:33:29.048Z,25.03
2022-09-12T09:36:14.782Z,25.30
2022-09-12T09:38:49.967Z,24.28
2022-09-12T09:41:36.278Z,25.20
2022-09-12T09:44:04.423Z,24.04
2022-09-12T09:46:33.321Z,22.36
2022-09-12T09:49:03.195Z,21.89
2022-09-12T09:51:36.912Z,23.55
2022-09-12T09:54:12.200Z,20.35
2022-09-12T09:56:42.426Z,19.93
2022-09-12T09:59:12.697Z,19.88
2022-09-12T10:01:46.387Z,19.18
2022-09-12T10:04:21.755Z,19.43
2022-09-12T10:06:52.568Z,18.16
2022-09-12T10:09:25.788Z,17.78
2022-09-12T10:11:56.374Z,17.41
2022-09-12T10:14:38.456Z,17.33
2022-09-12T10:17:33.778Z,16.62
2022-09-12T10:20:21.617Z,15.88
2022-09-12T10:22:50.460Z,15.47
2022-09-12T10:25:20.236Z,15.70
2022-09-12T10:27:55.106Z,15.60
2022-09-12T10:30:24.996Z,16.05
2022-09-12T10:32:54.339Z,15.75
2022-09-12T10:35:23.913Z,16.07
2022-09-12T10:37:55.391Z,15.58
2022-09-12T10:40:26.022Z,15.83
2022-09-12T10:42:56.225Z,15.91
2022-09-12T10:45:27.224Z,15.39
2022-09-12T10:47:58.163Z,14.86
2022-09-12T10:50:29.749Z,14.90
2022-09-12T10:53:14.773Z,14.62
2022-09-12T10:55:48.461Z,15.16
2022-09-12T10:58:32.217Z,15.80
2022-09-12T11:01:10.058Z,15.18
2022-09-12T11:03:59.743Z,15.03
2022-09-12T11:06:36.294Z,14.47
2022-09-12T11:09:10.891Z,14.78
2022-09-12T11:11:54.091Z,15.91
2022-09-12T11:14:35.318Z,14.74
2022-09-12T11:17:06.053Z,15.48
2022-09-12T11:19:50.938Z,14.66
2022-09-12T11:22:32.030Z,15.42
2022-09-12T11:25:08.678Z,16.81
2022-09-12T11:27:50.679Z,17.21
2022-09-12T11:30:19.855Z,16.10
2022-09-12T11:33:00.044Z,16.66
2022-09-12T11:35:30.042Z,17.25
2022-09-12T11:38:21.091Z,19.95
2022-09-12T11:40:54.506Z,18.40
2022-09-12T11:43:30.867Z,18.90
2022-09-12T11:46:07.639Z,19.02
2022-09-12T11:48:44.823Z,19.46
2022-09-12T11:51:19.792Z,21.27
2022-09-12T11:53:59.418Z,20.67
2022-09-12T11:56:27.152Z,21.02
2022-09-12T11:59:02.011Z,21.94
2022-09-12T12:01:41.317Z,22.33
2022-09-12T12:04:13.813Z,23.29
2022-09-12T12:06:52.082Z,23.25
2022-09-12T12:09:19.865Z,23.69
2022-09-12T12:11:52.611Z,24.98
2022-09-12T12:14:24.010Z,24.47
2022-09-12T12:16:52.897Z,24.79
2022-09-12T12:19:33.878Z,24.78
2022-09-12T12:22:18.120Z,24.64
2022-09-12T12:25:05.679Z,27.35
2022-09-12T12:27:49.287Z,26.97
2022-09-12T12:31:00.411Z,25.34
2022-09-12T12:33:55.751Z,26.52
2022-09-12T12:36:40.293Z,26.26
2022-09-12T12:39:45.720Z,25.92
2022-09-12T12:43:04.494Z,26.61
2022-09-12T12:46:12.406Z,27.21
2022-09-12T12:48:52.849Z,27.03
2022-09-12T12:52:01.228Z,30.01
2022-09-12T12:54:35.601Z,31.58
2022-09-12T12:57:18.527Z,27.66
2022-09-12T12:59:50.082Z,27.95
2022-09-12T13:02:24.068Z,29.31
2022-09-12T13:04:52.519Z,28.70
2022-09-12T13:07:28.674Z,30.09
2022-09-12T13:09:57.756Z,29.08
2022-09-12T13:12:27.271Z,28.56
2022-09-12T13:14:58.409Z,28.42
2022-09-12T13:17:35.905Z,28.41
2022-09-12T13:20:27.821Z,29.40
2022-09-12T13:22:58.342Z,30.59
2022-09-12T13:25:30.114Z,29.76
2022-09-12T13:28:07.402Z,30.20
2022-09-12T13:30:37.409Z,30.81
2022-09-12T13:33:21.813Z,30.61
2022-09-12T13:36:08.609Z,30.38
2022-09-12T13:38:48.629Z,29.64
2022-09-12T13:41:37.375Z,29.48
2022-09-12T13:44:05.378Z,30.76
2022-09-12T13:46:35.251Z,30.98
2022-09-12T13:49:11.511Z,29.67
2022-09-12T13:51:39.232Z,29.25
2022-09-12T13:54:08.268Z,32.67
2022-09-12T13:56:48.385Z,29.66
2022-09-12T13:59:15.993Z,30.28
2022-09-12T14:01:45.067Z,30.19
2022-09-12T14:08:28.876Z,31.00
2022-09-12T15:37:44.226Z,38.58
2022-09-12T16:51:11.338Z,41.19
2022-09-12T16:53:40.340Z,43.68
2022-09-12T16:56:08.634Z,40.48
2022-09-12T16:58:41.817Z,40.39
2022-09-12T17:01:11.161Z,40.54
2022-09-12T17:03:39.220Z,40.51
2022-09-12T17:06:09.333Z,41.19
2022-09-12T17:08:40.319Z,41.61
2022-09-12T17:11:11.101Z,41.76
2022-09-12T17:14:03.239Z,42.21
2022-09-12T17:16:28.329Z,42.63
2022-09-12T17:18:56.279Z,43.14
2022-09-12T17:21:23.985Z,43.99
2022-09-12T17:23:52.971Z,44.89
2022-09-12T17:26:20.760Z,44.98
2022-09-12T17:28:48.825Z,45.09
2022-09-12T17:31:17.226Z,45.15
2022-09-12T17:33:45.373Z,45.71
2022-09-12T17:36:15.326Z,45.89
2022-09-12T17:38:44.321Z,46.34
2022-09-12T17:41:21.484Z,46.74
2022-09-12T17:43:51.019Z,47.28
2022-09-12T17:46:19.156Z,47.32
2022-09-12T17:48:46.813Z,47.42
2022-09-12T17:51:16.265Z,47.90
2022-09-12T17:53:44.429Z,47.92
2022-09-12T17:56:12.357Z,48.09
2022-09-12T17:58:41.384Z,48.77
2022-09-12T18:01:30.650Z,49.44
2022-09-12T18:04:00.565Z,49.04
2022-09-12T18:06:29.487Z,49.20
2022-09-12T18:08:59.983Z,49.38
2022-09-12T18:11:27.634Z,49.49
2022-09-12T18:13:56.842Z,50.11
2022-09-12T18:16:24.415Z,50.85
2022-09-12T18:18:52.063Z,50.72
2022-09-12T18:21:20.418Z,52.61
2022-09-12T18:23:48.412Z,51.41
2022-09-12T18:26:16.128Z,53.33
2022-09-12T18:28:45.279Z,52.41
2022-09-12T18:31:16.982Z,54.96
2022-09-12T18:33:45.214Z,52.39
2022-09-12T18:36:14.461Z,52.17
2022-09-12T18:38:42.753Z,52.04
2022-09-12T18:41:12.293Z,52.49
2022-09-12T18:43:40.539Z,52.30
2022-09-12T18:46:10.125Z,54.50
2022-09-12T18:48:39.794Z,53.25
2022-09-12T18:51:09.088Z,53.17
2022-09-12T18:53:37.756Z,54.90
2022-09-12T18:56:08.604Z,58.52
2022-09-12T18:58:36.568Z,56.01
2022-09-12T19:01:12.068Z,54.01
2022-09-12T19:03:41.250Z,53.75
2022-09-12T19:06:11.845Z,54.54
2022-09-12T19:08:40.052Z,54.07
2022-09-12T19:11:08.789Z,54.10
2022-09-12T19:13:38.753Z,54.31
2022-09-12T19:16:09.216Z,54.80
2022-09-12T19:18:37.948Z,54.89
2022-09-12T19:21:08.188Z,55.50
2022-09-12T19:23:36.503Z,55.76
2022-09-12T19:26:06.737Z,56.10
2022-09-12T19:28:34.801Z,55.82
2022-09-12T19:31:06.325Z,56.38
2022-09-12T19:33:34.131Z,56.06
2022-09-12T19:36:04.359Z,56.42
2022-09-12T19:38:38.820Z,57.09
2022-09-12T19:41:12.324Z,58.43
2022-09-12T19:43:42.633Z,58.67
2022-09-12T19:46:27.829Z,58.47
2022-09-12T19:49:14.090Z,57.67
2022-09-12T19:51:41.890Z,57.68
2022-09-12T20:05:15.134Z,58.59
2022-09-12T20:08:06.411Z,58.58
2022-09-12T20:11:00.264Z,58.82
2022-09-12T20:13:48.999Z,60.64
2022-09-12T20:17:24.091Z,59.63
2022-09-12T20:20:43.626Z,59.55
2022-09-12T20:26:33.592Z,59.76
2022-09-12T20:29:18.921Z,59.62
2022-09-12T20:32:23.592Z,59.63
2022-09-12T20:39:14.215Z,60.27
2022-09-12T20:51:28.443Z,60.40
2022-09-12T21:07:46.933Z,60.86
2022-09-12T21:13:41.802Z,60.51
2022-09-12T21:45:01.015Z,62.67
2022-09-12T21:51:29.761Z,60.99
2022-09-12T22:05:52.017Z,60.64
2022-09-12T22:08:34.625Z,60.64
2022-09-12T22:11:20.783Z,60.46
2022-09-12T22:14:05.633Z,60.70
2022-09-12T22:16:46.284Z,60.51
2022-09-12T22:19:28.420Z,62.16
2022-09-12T22:22:24.643Z,62.04
2022-09-12T22:24:53.645Z,60.81
2022-09-12T22:27:21.922Z,60.42
2022-09-12T22:29:52.113Z,60.19
2022-09-12T22:32:20.739Z,61.06
2022-09-12T22:34:49.153Z,60.44
2022-09-12T22:37:18.884Z,60.39
2022-09-12T22:39:47.053Z,60.40
2022-09-12T22:42:15.690Z,60.66
2022-09-12T22:44:44.173Z,63.30
2022-09-12T22:47:12.231Z,62.57
2022-09-12T22:49:40.851Z,62.18
2022-09-12T22:52:08.874Z,62.65
2022-09-12T22:54:38.373Z,60.96
2022-09-12T22:57:07.314Z,60.69
2022-09-12T22:59:35.218Z,60.38
2022-09-12T23:02:03.624Z,60.40
2022-09-12T23:04:32.128Z,60.14
2022-09-12T23:07:00.450Z,60.31
2022-09-12T23:09:32.060Z,60.37
2022-09-12T23:12:04.877Z,60.37
2022-09-12T23:14:32.782Z,60.71
2022-09-12T23:17:00.827Z,60.67
2022-09-12T23:19:28.545Z,60.48
2022-09-12T23:21:56.433Z,60.64
2022-09-12T23:24:24.289Z,60.56
2022-09-12T23:26:51.909Z,62.45
2022-09-12T23:29:21.460Z,63.88
2022-09-12T23:31:49.241Z,61.97
2022-09-12T23:34:17.822Z,61.33
2022-09-12T23:36:48.957Z,61.27
2022-09-12T23:39:16.974Z,61.07
2022-09-12T23:41:45.087Z,62.46
2022-09-12T23:44:13.306Z,61.60
2022-09-12T23:46:42.437Z,61.35
2022-09-12T23:49:11.296Z,61.37
2022-09-12T23:51:40.012Z,62.58
2022-09-12T23:54:08.798Z,62.87
2022-09-12T23:56:37.116Z,62.38
2022-09-12T23:59:05.195Z,61.48
